sensor_id;sensor_type;location;lat;lon;timestamp;pressure;altitude;pressure_sealevel;temperature;humidity
79136;BME280;68533;51.090;17.216;2023-11-22T10:33:47;101198.97;;;0.13;100.00
79136;BME280;68533;51.090;17.216;2023-11-22T10:36:15;101209.25;;;1.06;100.00
79136;BME280;68533;51.090;17.216;2023-11-22T10:38:50;101209.25;;;1.06;100.00
79136;BME280;68533;51.090;17.216;2023-11-22T10:41:24;101226.13;;;2.99;100.00
79136;BME280;68533;51.090;17.216;2023-11-22T10:43:52;101237.84;;;2.93;100.00
79136;BME280;68533;51.090;17.216;2023-11-22T10:46:27;101236.66;;;3.65;100.00
79136;BME280;68533;51.090;17.216;2023-11-22T10:48:58;101251.28;;;4.27;100.00
79136;BME280;68533;51.090;17.216;2023-11-22T10:52:29;66656.09;;;-143.48;100.00
79136;BME280;68533;51.090;17.216;2023-11-22T10:55:44;101251.28;;;4.27;100.00
79136;BME280;68533;51.090;17.216;2023-11-22T10:58:11;101279.28;;;2.69;100.00
79136;BME280;68533;51.090;17.216;2023-11-22T11:00:43;101273.59;;;1.59;100.00
79136;BME280;68533;51.090;17.216;2023-11-22T11:04:19;66656.09;;;-143.48;100.00
79136;BME280;68533;51.090;17.216;2023-11-22T11:07:50;66656.09;;;-143.48;100.00
79136;BME280;68533;51.090;17.216;2023-11-22T11:11:19;66656.09;;;-143.48;100.00
79136;BME280;68533;51.090;17.216;2023-11-22T11:13:46;101268.19;;;3.35;100.00
79136;BME280;68533;51.090;17.216;2023-11-22T11:16:13;101272.06;;;3.07;100.00
79136;BME280;68533;51.090;17.216;2023-11-22T11:18:41;101260.94;;;2.31;100.00
79136;BME280;68533;51.090;17.216;2023-11-22T11:21:10;101252.97;;;1.71;100.00
79136;BME280;68533;51.090;17.216;2023-11-22T11:23:39;101244.56;;;1.33;100.00
79136;BME280;68533;51.090;17.216;2023-11-22T11:26:25;101251.38;;;1.15;100.00
79136;BME280;68533;51.090;17.216;2023-11-22T11:28:53;101242.59;;;0.66;100.00
79136;BME280;68533;51.090;17.216;2023-11-22T11:31:23;101227.06;;;0.47;100.00
79136;BME280;68533;51.090;17.216;2023-11-22T11:36:24;101221.06;;;-0.05;100.00
79136;BME280;68533;51.090;17.216;2023-11-22T11:39:49;66656.09;;;-143.48;100.00
79136;BME280;68533;51.090;17.216;2023-11-22T11:43:20;66656.09;;;-143.48;100.00
79136;BME280;68533;51.090;17.216;2023-11-22T11:46:44;66656.09;;;-143.48;100.00
79136;BME280;68533;51.090;17.216;2023-11-22T11:50:11;66656.09;;;-143.48;100.00
79136;BME280;68533;51.090;17.216;2023-11-22T11:53:38;66656.09;;;-143.48;100.00
79136;BME280;68533;51.090;17.216;2023-11-22T11:57:07;66656.09;;;-143.48;100.00
79136;BME280;68533;51.090;17.216;2023-11-22T12:00:32;66656.09;;;-143.48;100.00
79136;BME280;68533;51.090;17.216;2023-11-22T12:03:57;66656.09;;;-143.48;100.00
79136;BME280;68533;51.090;17.216;2023-11-22T12:07:27;66656.09;;;-143.48;100.00
79136;BME280;68533;51.090;17.216;2023-11-22T12:10:55;66656.09;;;-143.48;100.00
79136;BME280;68533;51.090;17.216;2023-11-22T12:14:20;66656.09;;;-143.48;100.00
79136;BME280;68533;51.090;17.216;2023-11-22T12:17:47;66656.09;;;-143.48;100.00
79136;BME280;68533;51.090;17.216;2023-11-22T12:21:15;66656.09;;;-143.48;100.00
79136;BME280;68533;51.090;17.216;2023-11-22T12:24:41;66656.09;;;-143.48;100.00
79136;BME280;68533;51.090;17.216;2023-11-22T12:28:10;66656.09;;;-143.48;100.00
79136;BME280;68533;51.090;17.216;2023-11-22T12:31:35;66656.09;;;-143.48;100.00
79136;BME280;68533;51.090;17.216;2023-11-22T12:35:00;66656.09;;;-143.48;100.00
79136;BME280;68533;51.090;17.216;2023-11-22T12:38:27;66656.09;;;-143.48;100.00
79136;BME280;68533;51.090;17.216;2023-11-22T12:41:57;66656.09;;;-143.48;100.00
79136;BME280;68533;51.090;17.216;2023-11-22T12:45:22;66656.09;;;-143.48;100.00
79136;BME280;68533;51.090;17.216;2023-11-22T12:48:51;66656.09;;;-143.48;100.00
79136;BME280;68533;51.090;17.216;2023-11-22T12:52:16;66656.09;;;-143.48;100.00
79136;BME280;68533;51.090;17.216;2023-11-22T12:55:47;66656.09;;;-143.48;100.00
79136;BME280;68533;51.090;17.216;2023-11-22T12:59:17;66656.09;;;-143.48;100.00
79136;BME280;68533;51.090;17.216;2023-11-22T13:02:46;66656.09;;;-143.48;100.00
79136;BME280;68533;51.090;17.216;2023-11-22T13:06:12;66656.09;;;-143.48;100.00
79136;BME280;68533;51.090;17.216;2023-11-22T13:09:37;66656.09;;;-143.48;100.00
79136;BME280;68533;51.090;17.216;2023-11-22T13:13:05;66656.09;;;-143.48;100.00
79136;BME280;68533;51.090;17.216;2023-11-22T13:16:32;66656.09;;;-143.48;100.00
79136;BME280;68533;51.090;17.216;2023-11-22T13:19:58;66656.09;;;-143.48;100.00
79136;BME280;68533;51.090;17.216;2023-11-22T13:23:23;66656.09;;;-143.48;100.00
79136;BME280;68533;51.090;17.216;2023-11-22T13:26:48;66656.09;;;-143.48;100.00
79136;BME280;68533;51.090;17.216;2023-11-22T13:30:13;66656.09;;;-143.48;100.00
79136;BME280;68533;51.090;17.216;2023-11-22T13:33:38;66656.09;;;-143.48;100.00
79136;BME280;68533;51.090;17.216;2023-11-22T13:37:08;66656.09;;;-143.48;100.00
79136;BME280;68533;51.090;17.216;2023-11-22T13:40:33;66656.09;;;-143.48;100.00
79136;BME280;68533;51.090;17.216;2023-11-22T13:43:58;66656.09;;;-143.48;100.00
79136;BME280;68533;51.090;17.216;2023-11-22T13:47:22;66656.09;;;-143.48;100.00
79136;BME280;68533;51.090;17.216;2023-11-22T13:50:47;66656.09;;;-143.48;100.00
79136;BME280;68533;51.090;17.216;2023-11-22T13:54:11;66656.09;;;-143.48;100.00
79136;BME280;68533;51.090;17.216;2023-11-22T13:57:38;66656.09;;;-143.48;100.00
79136;BME280;68533;51.090;17.216;2023-11-22T14:01:03;66656.09;;;-143.48;100.00
79136;BME280;68533;51.090;17.216;2023-11-22T14:04:30;66656.09;;;-143.48;100.00
79136;BME280;68533;51.090;17.216;2023-11-22T14:07:55;66656.09;;;-143.48;100.00
79136;BME280;68533;51.090;17.216;2023-11-22T14:11:23;66656.09;;;-143.48;100.00
79136;BME280;68533;51.090;17.216;2023-11-22T14:14:47;66656.09;;;-143.48;100.00
79136;BME280;68533;51.090;17.216;2023-11-22T14:18:12;66656.09;;;-143.48;100.00
79136;BME280;68533;51.090;17.216;2023-11-22T14:21:36;66656.09;;;-143.48;100.00
79136;BME280;68533;51.090;17.216;2023-11-22T14:25:05;66656.09;;;-143.48;100.00
79136;BME280;68533;51.090;17.216;2023-11-22T14:28:38;66656.09;;;-143.48;100.00
79136;BME280;68533;51.090;17.216;2023-11-22T14:32:04;66656.09;;;-143.48;100.00
79136;BME280;68533;51.090;17.216;2023-11-22T14:35:28;66656.09;;;-143.48;100.00
79136;BME280;68533;51.090;17.216;2023-11-22T14:38:53;66656.09;;;-143.48;100.00
79136;BME280;68533;51.090;17.216;2023-11-22T14:42:21;66656.09;;;-143.48;100.00
79136;BME280;68533;51.090;17.216;2023-11-22T14:45:50;66656.09;;;-143.48;100.00
79136;BME280;68533;51.090;17.216;2023-11-22T14:49:15;66656.09;;;-143.48;100.00
79136;BME280;68533;51.090;17.216;2023-11-22T14:52:40;66656.09;;;-143.48;100.00
79136;BME280;68533;51.090;17.216;2023-11-22T14:56:05;66656.09;;;-143.48;100.00
79136;BME280;68533;51.090;17.216;2023-11-22T14:59:29;66656.09;;;-143.48;100.00
79136;BME280;68533;51.090;17.216;2023-11-22T15:02:54;66656.09;;;-143.48;100.00
79136;BME280;68533;51.090;17.216;2023-11-22T15:06:20;66656.09;;;-143.48;100.00
79136;BME280;68533;51.090;17.216;2023-11-22T15:09:45;66656.09;;;-143.48;100.00
79136;BME280;68533;51.090;17.216;2023-11-22T15:13:10;66656.09;;;-143.48;100.00
79136;BME280;68533;51.090;17.216;2023-11-22T15:16:35;66656.09;;;-143.48;100.00
79136;BME280;68533;51.090;17.216;2023-11-22T15:20:00;66656.09;;;-143.48;100.00
79136;BME280;68533;51.090;17.216;2023-11-22T15:23:25;66656.09;;;-143.48;100.00
79136;BME280;68533;51.090;17.216;2023-11-22T15:26:49;66656.09;;;-143.48;100.00
79136;BME280;68533;51.090;17.216;2023-11-22T15:30:14;66656.09;;;-143.48;100.00
79136;BME280;68533;51.090;17.216;2023-11-22T15:33:41;66656.09;;;-143.48;100.00
79136;BME280;68533;51.090;17.216;2023-11-22T15:37:06;66656.09;;;-143.48;100.00
79136;BME280;68533;51.090;17.216;2023-11-22T15:40:33;66656.09;;;-143.48;100.00
79136;BME280;68533;51.090;17.216;2023-11-22T15:43:58;66656.09;;;-143.48;100.00
79136;BME280;68533;51.090;17.216;2023-11-22T15:47:23;66656.09;;;-143.48;100.00
79136;BME280;68533;51.090;17.216;2023-11-22T15:50:47;66656.09;;;-143.48;100.00
79136;BME280;68533;51.090;17.216;2023-11-22T15:54:12;66656.09;;;-143.48;100.00
79136;BME280;68533;51.090;17.216;2023-11-22T15:57:36;66656.09;;;-143.48;100.00
79136;BME280;68533;51.090;17.216;2023-11-22T16:01:01;66656.09;;;-143.48;100.00
79136;BME280;68533;51.090;17.216;2023-11-22T16:04:28;66656.09;;;-143.48;100.00
79136;BME280;68533;51.090;17.216;2023-11-22T16:07:52;66656.09;;;-143.48;100.00
79136;BME280;68533;51.090;17.216;2023-11-22T16:11:17;66656.09;;;-143.48;100.00
79136;BME280;68533;51.090;17.216;2023-11-22T16:14:42;66656.09;;;-143.48;100.00
79136;BME280;68533;51.090;17.216;2023-11-22T16:18:07;66656.09;;;-143.48;100.00
79136;BME280;68533;51.090;17.216;2023-11-22T16:21:32;66656.09;;;-143.48;100.00
79136;BME280;68533;51.090;17.216;2023-11-22T16:24:57;66656.09;;;-143.48;100.00
79136;BME280;68533;51.090;17.216;2023-11-22T16:28:22;66656.09;;;-143.48;100.00
79136;BME280;68533;51.090;17.216;2023-11-22T16:31:46;66656.09;;;-143.48;100.00
79136;BME280;68533;51.090;17.216;2023-11-22T16:35:12;66656.09;;;-143.48;100.00
79136;BME280;68533;51.090;17.216;2023-11-22T16:38:37;66656.09;;;-143.48;100.00
79136;BME280;68533;51.090;17.216;2023-11-22T16:42:02;66656.09;;;-143.48;100.00
79136;BME280;68533;51.090;17.216;2023-11-22T16:45:29;66656.09;;;-143.48;100.00
79136;BME280;68533;51.090;17.216;2023-11-22T16:48:54;66656.09;;;-143.48;100.00
79136;BME280;68533;51.090;17.216;2023-11-22T16:52:21;66656.09;;;-143.48;100.00
79136;BME280;68533;51.090;17.216;2023-11-22T16:55:57;66656.09;;;-143.48;100.00
79136;BME280;68533;51.090;17.216;2023-11-22T16:59:22;66656.09;;;-143.48;100.00
79136;BME280;68533;51.090;17.216;2023-11-22T17:02:47;66656.09;;;-143.48;100.00
79136;BME280;68533;51.090;17.216;2023-11-22T17:06:19;66656.09;;;-143.48;100.00
79136;BME280;68533;51.090;17.216;2023-11-22T17:09:43;66656.09;;;-143.48;100.00
79136;BME280;68533;51.090;17.216;2023-11-22T17:13:08;66656.09;;;-143.48;100.00
79136;BME280;68533;51.090;17.216;2023-11-22T17:16:35;66656.09;;;-143.48;100.00
79136;BME280;68533;51.090;17.216;2023-11-22T17:20:01;66656.09;;;-143.48;100.00
79136;BME280;68533;51.090;17.216;2023-11-22T17:23:28;66656.09;;;-143.48;100.00
79136;BME280;68533;51.090;17.216;2023-11-22T17:26:54;66656.09;;;-143.48;100.00
79136;BME280;68533;51.090;17.216;2023-11-22T17:30:18;66656.09;;;-143.48;100.00
79136;BME280;68533;51.090;17.216;2023-11-22T17:33:43;66656.09;;;-143.48;100.00
79136;BME280;68533;51.090;17.216;2023-11-22T17:37:08;66656.09;;;-143.48;100.00
79136;BME280;68533;51.090;17.216;2023-11-22T17:40:33;66656.09;;;-143.48;100.00
79136;BME280;68533;51.090;17.216;2023-11-22T17:43:58;66656.09;;;-143.48;100.00
79136;BME280;68533;51.090;17.216;2023-11-22T17:47:22;66656.09;;;-143.48;100.00
79136;BME280;68533;51.090;17.216;2023-11-22T17:50:47;66656.09;;;-143.48;100.00
79136;BME280;68533;51.090;17.216;2023-11-22T17:54:12;66656.09;;;-143.48;100.00
79136;BME280;68533;51.090;17.216;2023-11-22T17:57:36;66656.09;;;-143.48;100.00
79136;BME280;68533;51.090;17.216;2023-11-22T18:01:03;66656.09;;;-143.48;100.00
79136;BME280;68533;51.090;17.216;2023-11-22T18:04:27;66656.09;;;-143.48;100.00
79136;BME280;68533;51.090;17.216;2023-11-22T18:07:52;66656.09;;;-143.48;100.00
79136;BME280;68533;51.090;17.216;2023-11-22T18:11:17;66656.09;;;-143.48;100.00
79136;BME280;68533;51.090;17.216;2023-11-22T18:14:42;66656.09;;;-143.48;100.00
79136;BME280;68533;51.090;17.216;2023-11-22T18:18:12;66656.09;;;-143.48;100.00
79136;BME280;68533;51.090;17.216;2023-11-22T18:21:36;66656.09;;;-143.48;100.00
79136;BME280;68533;51.090;17.216;2023-11-22T18:25:02;66656.09;;;-143.48;100.00
79136;BME280;68533;51.090;17.216;2023-11-22T18:28:27;66656.09;;;-143.48;100.00
79136;BME280;68533;51.090;17.216;2023-11-22T18:31:52;66656.09;;;-143.48;100.00
79136;BME280;68533;51.090;17.216;2023-11-22T18:35:17;66656.09;;;-143.48;100.00
79136;BME280;68533;51.090;17.216;2023-11-22T18:38:41;66656.09;;;-143.48;100.00
79136;BME280;68533;51.090;17.216;2023-11-22T18:42:11;66656.09;;;-143.48;100.00
79136;BME280;68533;51.090;17.216;2023-11-22T18:45:36;66656.09;;;-143.48;100.00
79136;BME280;68533;51.090;17.216;2023-11-22T18:49:03;66656.09;;;-143.48;100.00
79136;BME280;68533;51.090;17.216;2023-11-22T18:52:27;66656.09;;;-143.48;100.00
79136;BME280;68533;51.090;17.216;2023-11-22T18:55:54;66656.09;;;-143.48;100.00
79136;BME280;68533;51.090;17.216;2023-11-22T18:59:20;66656.09;;;-143.48;100.00
79136;BME280;68533;51.090;17.216;2023-11-22T19:02:45;66656.09;;;-143.48;100.00
79136;BME280;68533;51.090;17.216;2023-11-22T19:06:10;66656.09;;;-143.48;100.00
79136;BME280;68533;51.090;17.216;2023-11-22T19:09:36;66656.09;;;-143.48;100.00
79136;BME280;68533;51.090;17.216;2023-11-22T19:13:01;66656.09;;;-143.48;100.00
79136;BME280;68533;51.090;17.216;2023-11-22T19:16:26;66656.09;;;-143.48;100.00
79136;BME280;68533;51.090;17.216;2023-11-22T19:19:51;66656.09;;;-143.48;100.00
79136;BME280;68533;51.090;17.216;2023-11-22T19:23:16;66656.09;;;-143.48;100.00
79136;BME280;68533;51.090;17.216;2023-11-22T19:26:40;66656.09;;;-143.48;100.00
79136;BME280;68533;51.090;17.216;2023-11-22T19:30:05;66656.09;;;-143.48;100.00
79136;BME280;68533;51.090;17.216;2023-11-22T19:33:31;66656.09;;;-143.48;100.00
79136;BME280;68533;51.090;17.216;2023-11-22T19:36:56;66656.09;;;-143.48;100.00
79136;BME280;68533;51.090;17.216;2023-11-22T19:40:21;66656.09;;;-143.48;100.00
79136;BME280;68533;51.090;17.216;2023-11-22T19:43:50;66656.09;;;-143.48;100.00
79136;BME280;68533;51.090;17.216;2023-11-22T19:47:37;66656.09;;;-143.48;100.00
79136;BME280;68533;51.090;17.216;2023-11-22T19:51:07;66656.09;;;-143.48;100.00
79136;BME280;68533;51.090;17.216;2023-11-22T19:54:32;66656.09;;;-143.48;100.00
79136;BME280;68533;51.090;17.216;2023-11-22T19:57:58;66656.09;;;-143.48;100.00
79136;BME280;68533;51.090;17.216;2023-11-22T20:01:25;66656.09;;;-143.48;100.00
79136;BME280;68533;51.090;17.216;2023-11-22T20:04:53;66656.09;;;-143.48;100.00
79136;BME280;68533;51.090;17.216;2023-11-22T20:08:21;66656.09;;;-143.48;100.00
79136;BME280;68533;51.090;17.216;2023-11-22T20:11:47;66656.09;;;-143.48;100.00
79136;BME280;68533;51.090;17.216;2023-11-22T20:15:13;66656.09;;;-143.48;100.00
79136;BME280;68533;51.090;17.216;2023-11-22T20:18:40;66656.09;;;-143.48;100.00
79136;BME280;68533;51.090;17.216;2023-11-22T20:22:05;66656.09;;;-143.48;100.00
79136;BME280;68533;51.090;17.216;2023-11-22T20:25:30;66656.09;;;-143.48;100.00
79136;BME280;68533;51.090;17.216;2023-11-22T20:28:57;66656.09;;;-143.48;100.00
79136;BME280;68533;51.090;17.216;2023-11-22T20:32:26;66656.09;;;-143.48;100.00
79136;BME280;68533;51.090;17.216;2023-11-22T20:35:51;66656.09;;;-143.48;100.00
79136;BME280;68533;51.090;17.216;2023-11-22T20:39:16;66656.09;;;-143.48;100.00
79136;BME280;68533;51.090;17.216;2023-11-22T20:42:46;66656.09;;;-143.48;100.00
79136;BME280;68533;51.090;17.216;2023-11-22T20:46:11;66656.09;;;-143.48;100.00
79136;BME280;68533;51.090;17.216;2023-11-22T20:49:35;66656.09;;;-143.48;100.00
79136;BME280;68533;51.090;17.216;2023-11-22T20:53:02;66656.09;;;-143.48;100.00
79136;BME280;68533;51.090;17.216;2023-11-22T20:56:29;66656.09;;;-143.48;100.00
79136;BME280;68533;51.090;17.216;2023-11-22T20:59:55;66656.09;;;-143.48;100.00
79136;BME280;68533;51.090;17.216;2023-11-22T21:03:19;66656.09;;;-143.48;100.00
79136;BME280;68533;51.090;17.216;2023-11-22T21:06:44;66656.09;;;-143.48;100.00
79136;BME280;68533;51.090;17.216;2023-11-22T21:10:10;66656.09;;;-143.48;100.00
79136;BME280;68533;51.090;17.216;2023-11-22T21:13:35;66656.09;;;-143.48;100.00
79136;BME280;68533;51.090;17.216;2023-11-22T21:17:01;66656.09;;;-143.48;100.00
79136;BME280;68533;51.090;17.216;2023-11-22T21:20:28;66656.09;;;-143.48;100.00
79136;BME280;68533;51.090;17.216;2023-11-22T21:23:52;66656.09;;;-143.48;100.00
79136;BME280;68533;51.090;17.216;2023-11-22T21:27:20;66656.09;;;-143.48;100.00
79136;BME280;68533;51.090;17.216;2023-11-22T21:30:45;66656.09;;;-143.48;100.00
79136;BME280;68533;51.090;17.216;2023-11-22T21:34:10;66656.09;;;-143.48;100.00
79136;BME280;68533;51.090;17.216;2023-11-22T21:37:34;66656.09;;;-143.48;100.00
79136;BME280;68533;51.090;17.216;2023-11-22T21:41:00;66656.09;;;-143.48;100.00
79136;BME280;68533;51.090;17.216;2023-11-22T21:44:27;66656.09;;;-143.48;100.00
79136;BME280;68533;51.090;17.216;2023-11-22T21:47:53;66656.09;;;-143.48;100.00
79136;BME280;68533;51.090;17.216;2023-11-22T21:51:27;66656.09;;;-143.48;100.00
79136;BME280;68533;51.090;17.216;2023-11-22T21:54:52;66656.09;;;-143.48;100.00
79136;BME280;68533;51.090;17.216;2023-11-22T21:58:17;66656.09;;;-143.48;100.00
79136;BME280;68533;51.090;17.216;2023-11-22T22:01:45;66656.09;;;-143.48;100.00
79136;BME280;68533;51.090;17.216;2023-11-22T22:05:11;66656.09;;;-143.48;100.00
79136;BME280;68533;51.090;17.216;2023-11-22T22:08:36;66656.09;;;-143.48;100.00
79136;BME280;68533;51.090;17.216;2023-11-22T22:12:01;66656.09;;;-143.48;100.00
79136;BME280;68533;51.090;17.216;2023-11-22T22:15:26;66656.09;;;-143.48;100.00
79136;BME280;68533;51.090;17.216;2023-11-22T22:18:50;66656.09;;;-143.48;100.00
79136;BME280;68533;51.090;17.216;2023-11-22T22:22:15;66656.09;;;-143.48;100.00
79136;BME280;68533;51.090;17.216;2023-11-22T22:25:40;66656.09;;;-143.48;100.00
79136;BME280;68533;51.090;17.216;2023-11-22T22:29:08;66656.09;;;-143.48;100.00
79136;BME280;68533;51.090;17.216;2023-11-22T22:32:36;66656.09;;;-143.48;100.00
79136;BME280;68533;51.090;17.216;2023-11-22T22:36:01;66656.09;;;-143.48;100.00
79136;BME280;68533;51.090;17.216;2023-11-22T22:39:27;66656.09;;;-143.48;100.00
79136;BME280;68533;51.090;17.216;2023-11-22T22:42:52;66656.09;;;-143.48;100.00
79136;BME280;68533;51.090;17.216;2023-11-22T22:46:16;66656.09;;;-143.48;100.00
79136;BME280;68533;51.090;17.216;2023-11-22T22:49:42;66656.09;;;-143.48;100.00
79136;BME280;68533;51.090;17.216;2023-11-22T22:53:06;66656.09;;;-143.48;100.00
79136;BME280;68533;51.090;17.216;2023-11-22T22:56:31;66656.09;;;-143.48;100.00
79136;BME280;68533;51.090;17.216;2023-11-22T22:59:56;66656.09;;;-143.48;100.00
79136;BME280;68533;51.090;17.216;2023-11-22T23:03:20;66656.09;;;-143.48;100.00
79136;BME280;68533;51.090;17.216;2023-11-22T23:06:45;66656.09;;;-143.48;100.00
79136;BME280;68533;51.090;17.216;2023-11-22T23:10:10;66656.09;;;-143.48;100.00
79136;BME280;68533;51.090;17.216;2023-11-22T23:13:34;66656.09;;;-143.48;100.00
79136;BME280;68533;51.090;17.216;2023-11-22T23:16:59;66656.09;;;-143.48;100.00
79136;BME280;68533;51.090;17.216;2023-11-22T23:20:23;66656.09;;;-143.48;100.00
79136;BME280;68533;51.090;17.216;2023-11-22T23:23:48;66656.09;;;-143.48;100.00
79136;BME280;68533;51.090;17.216;2023-11-22T23:27:13;66656.09;;;-143.48;100.00
79136;BME280;68533;51.090;17.216;2023-11-22T23:30:38;66656.09;;;-143.48;100.00
79136;BME280;68533;51.090;17.216;2023-11-22T23:34:03;66656.09;;;-143.48;100.00
79136;BME280;68533;51.090;17.216;2023-11-22T23:37:27;66656.09;;;-143.48;100.00
79136;BME280;68533;51.090;17.216;2023-11-22T23:40:52;66656.09;;;-143.48;100.00
79136;BME280;68533;51.090;17.216;2023-11-22T23:44:16;66656.09;;;-143.48;100.00
79136;BME280;68533;51.090;17.216;2023-11-22T23:47:41;66656.09;;;-143.48;100.00
79136;BME280;68533;51.090;17.216;2023-11-22T23:51:06;66656.09;;;-143.48;100.00
79136;BME280;68533;51.090;17.216;2023-11-22T23:54:30;66656.09;;;-143.48;100.00
79136;BME280;68533;51.090;17.216;2023-11-22T23:57:55;66656.09;;;-143.48;100.00
